createdAt,value
2016-10-29T00:00:27.010Z,0
2016-10-29T00:01:12.890Z,0
2016-10-29T00:02:12.622Z,0
2016-10-29T00:03:12.062Z,0
2016-10-29T00:04:12.367Z,0
2016-10-29T00:05:12.045Z,0
2016-10-29T00:06:12.037Z,0
2016-10-29T00:07:12.030Z,0
2016-10-29T00:08:12.012Z,0
2016-10-29T00:09:12.005Z,0
2016-10-29T00:10:11.999Z,0
2016-10-29T00:11:15.035Z,0
2016-10-29T00:13:13.059Z,0
2016-10-29T00:14:12.408Z,0
2016-10-29T00:15:13.694Z,0
2016-10-29T00:16:11.934Z,0
2016-10-29T00:17:11.953Z,0
2016-10-29T00:18:11.918Z,0
2016-10-29T00:19:11.915Z,0
2016-10-29T00:20:13.413Z,0
2016-10-29T00:21:13.408Z,0
2016-10-29T00:22:14.709Z,0
2016-10-29T00:23:14.486Z,0
2016-10-29T00:24:13.160Z,0
2016-10-29T00:25:11.848Z,0
2016-10-29T00:26:12.171Z,0
2016-10-29T00:27:12.114Z,0
2016-10-29T00:28:11.839Z,0
2016-10-29T00:29:11.804Z,0
2016-10-29T00:30:11.801Z,0
2016-10-29T00:31:11.792Z,0
2016-10-29T00:32:11.781Z,0
2016-10-29T00:33:11.766Z,0
2016-10-29T00:34:11.757Z,0
2016-10-29T00:35:11.788Z,0
2016-10-29T00:36:11.736Z,0
2016-10-29T00:37:11.722Z,0
2016-10-29T00:38:11.716Z,0
2016-10-29T00:39:11.716Z,0
2016-10-29T00:40:11.693Z,0
2016-10-29T00:41:11.718Z,0
2016-10-29T00:42:11.677Z,0
2016-10-29T00:43:11.674Z,0
2016-10-29T00:44:11.656Z,0
2016-10-29T00:45:11.656Z,0
2016-10-29T00:46:11.632Z,0
2016-10-29T00:47:11.629Z,0
2016-10-29T00:48:11.615Z,0
2016-10-29T00:49:11.598Z,0
2016-10-29T00:50:11.894Z,0
2016-10-29T00:51:11.589Z,0
2016-10-29T00:52:11.572Z,0
2016-10-29T00:53:11.559Z,0
2016-10-29T00:54:11.547Z,0
2016-10-29T00:55:11.541Z,0
2016-10-29T00:56:11.528Z,0
2016-10-29T00:57:11.521Z,0
2016-10-29T00:58:11.519Z,0
2016-10-29T00:59:11.498Z,0
2016-10-29T01:00:11.490Z,0
2016-10-29T01:01:11.481Z,0
2016-10-29T01:02:11.469Z,0
2016-10-29T01:03:11.772Z,0
2016-10-29T01:04:11.456Z,0
2016-10-29T01:05:26.346Z,0
2016-10-29T01:07:11.919Z,0
2016-10-29T01:08:11.561Z,0
2016-10-29T01:09:12.558Z,0
2016-10-29T01:10:12.800Z,0
2016-10-29T01:11:11.373Z,0
2016-10-29T01:12:11.370Z,0
2016-10-29T01:13:11.356Z,0
2016-10-29T01:14:12.095Z,0
2016-10-29T01:15:11.981Z,0
2016-10-29T01:16:11.534Z,0
2016-10-29T01:17:26.724Z,0
2016-10-29T01:18:12.508Z,0
2016-10-29T01:19:11.287Z,0
2016-10-29T01:20:11.290Z,0
2016-10-29T01:21:11.276Z,0
2016-10-29T01:22:11.256Z,0
2016-10-29T01:23:11.251Z,0
2016-10-29T01:24:11.240Z,0
2016-10-29T01:25:11.236Z,0
2016-10-29T01:26:11.222Z,0
2016-10-29T01:27:11.222Z,0
2016-10-29T01:28:11.207Z,0
2016-10-29T01:29:11.200Z,0
2016-10-29T01:30:13.297Z,0
2016-10-29T01:31:15.270Z,0
2016-10-29T01:32:12.216Z,0
2016-10-29T01:33:11.983Z,0
2016-10-29T01:34:11.140Z,0
2016-10-29T01:35:11.637Z,0
2016-10-29T01:36:11.775Z,0
2016-10-29T01:37:11.302Z,0
2016-10-29T01:38:11.386Z,0
2016-10-29T01:40:13.059Z,0
2016-10-29T01:41:13.754Z,0
2016-10-29T01:42:11.060Z,0
2016-10-29T01:43:11.043Z,0
2016-10-29T01:44:11.808Z,0
2016-10-29T01:45:11.018Z,0
2016-10-29T01:46:11.016Z,0
2016-10-29T01:47:11.000Z,0
2016-10-29T01:48:11.001Z,0
2016-10-29T01:49:10.985Z,0
2016-10-29T01:50:10.969Z,0
2016-10-29T01:51:10.955Z,0
2016-10-29T01:52:10.944Z,0
2016-10-29T01:53:10.936Z,0
2016-10-29T01:54:10.933Z,0
2016-10-29T01:55:10.912Z,0
2016-10-29T01:56:10.908Z,0
2016-10-29T01:57:10.904Z,0
2016-10-29T01:58:10.893Z,0
2016-10-29T01:59:10.878Z,0
2016-10-29T02:00:10.858Z,0
2016-10-29T02:01:10.852Z,0
2016-10-29T02:02:11.143Z,0
2016-10-29T02:03:10.840Z,0
2016-10-29T02:04:10.818Z,0
2016-10-29T02:05:10.797Z,0
2016-10-29T02:06:10.797Z,0
2016-10-29T02:07:10.782Z,0
2016-10-29T02:08:10.782Z,0
2016-10-29T02:09:10.768Z,0
2016-10-29T02:10:10.756Z,0
2016-10-29T02:11:10.786Z,0
2016-10-29T02:12:10.730Z,0
2016-10-29T02:13:10.723Z,0
2016-10-29T02:14:10.711Z,0
2016-10-29T02:15:10.704Z,0
2016-10-29T02:16:10.987Z,0
2016-10-29T02:17:10.688Z,0
2016-10-29T02:18:10.666Z,0
2016-10-29T02:19:10.655Z,0
2016-10-29T02:20:10.645Z,0
2016-10-29T02:21:10.665Z,0
2016-10-29T02:22:10.627Z,0
2016-10-29T02:23:12.924Z,0
2016-10-29T02:24:11.556Z,0
2016-10-29T02:25:10.786Z,0
2016-10-29T02:26:25.799Z,0
2016-10-29T02:27:11.206Z,0
2016-10-29T02:28:10.566Z,0
2016-10-29T02:29:10.548Z,0
2016-10-29T02:30:10.545Z,0
2016-10-29T02:31:10.531Z,0
2016-10-29T02:32:11.372Z,0
2016-10-29T02:33:10.784Z,0
2016-10-29T02:34:11.903Z,0
2016-10-29T02:36:11.178Z,0
2016-10-29T02:38:10.460Z,0
2016-10-29T02:39:10.699Z,0
2016-10-29T02:40:10.434Z,0
2016-10-29T02:41:10.425Z,0
2016-10-29T02:42:10.403Z,0
2016-10-29T02:43:10.397Z,0
2016-10-29T02:44:10.402Z,0
2016-10-29T02:45:10.382Z,0
2016-10-29T02:46:10.376Z,0
2016-10-29T02:47:10.355Z,0
2016-10-29T02:48:12.642Z,0
2016-10-29T02:49:13.691Z,0
2016-10-29T02:50:11.592Z,0
2016-10-29T02:51:12.255Z,0
2016-10-29T02:52:11.913Z,0
2016-10-29T02:53:10.762Z,0
2016-10-29T02:54:10.278Z,0
2016-10-29T02:55:10.287Z,0
2016-10-29T02:56:10.265Z,0
2016-10-29T02:57:13.228Z,0
2016-10-29T02:58:13.367Z,0
2016-10-29T02:59:12.837Z,0
2016-10-29T03:00:11.062Z,0
2016-10-29T03:01:11.125Z,0
2016-10-29T03:02:10.531Z,0
2016-10-29T03:03:10.186Z,0
2016-10-29T03:04:10.502Z,0
2016-10-29T03:05:10.163Z,0
2016-10-29T03:06:10.150Z,0
2016-10-29T03:07:10.139Z,0
2016-10-29T03:08:10.427Z,0
2016-10-29T03:09:10.428Z,0
2016-10-29T03:10:10.104Z,0
2016-10-29T03:11:10.405Z,0
2016-10-29T03:12:10.385Z,0
2016-10-29T03:13:10.070Z,0
2016-10-29T03:14:10.371Z,0
2016-10-29T03:15:10.044Z,0
2016-10-29T03:16:10.036Z,0
2016-10-29T03:17:10.027Z,0
2016-10-29T03:18:10.025Z,0
2016-10-29T03:19:10.016Z,0
2016-10-29T03:20:10.314Z,0
2016-10-29T03:21:10.298Z,0
2016-10-29T03:22:10.287Z,0
2016-10-29T03:23:09.969Z,0
2016-10-29T03:24:09.959Z,0
2016-10-29T03:25:09.939Z,0
2016-10-29T03:26:09.942Z,0
2016-10-29T03:27:09.929Z,0
2016-10-29T03:28:09.912Z,0
2016-10-29T03:29:09.906Z,0
2016-10-29T03:30:09.894Z,0
2016-10-29T03:31:09.880Z,0
2016-10-29T03:32:10.181Z,0
2016-10-29T03:33:09.868Z,0
2016-10-29T03:34:09.856Z,0
2016-10-29T03:35:09.835Z,0
2016-10-29T03:36:09.831Z,0
2016-10-29T03:37:09.815Z,0
2016-10-29T03:38:09.810Z,0
2016-10-29T03:39:09.835Z,0
2016-10-29T03:40:09.789Z,0
2016-10-29T03:41:09.775Z,0
2016-10-29T03:42:24.733Z,0
2016-10-29T03:43:11.560Z,0
2016-10-29T03:44:11.241Z,0
2016-10-29T03:45:10.691Z,0
2016-10-29T03:47:10.106Z,0
2016-10-29T03:48:09.706Z,0
2016-10-29T03:49:09.688Z,0
2016-10-29T03:50:09.736Z,0
2016-10-29T03:51:10.790Z,0
2016-10-29T03:52:10.463Z,0
2016-10-29T03:53:26.469Z,0
2016-10-29T03:54:10.140Z,0
2016-10-29T03:55:10.181Z,0
2016-10-29T03:56:09.979Z,0
2016-10-29T03:57:09.621Z,0
2016-10-29T03:58:09.605Z,0
2016-10-29T03:59:09.595Z,0
2016-10-29T04:00:09.588Z,0
2016-10-29T04:01:09.871Z,0
2016-10-29T04:02:09.556Z,0
2016-10-29T04:03:09.557Z,0
2016-10-29T04:04:09.537Z,0
2016-10-29T04:05:09.531Z,0
2016-10-29T04:06:11.650Z,0
2016-10-29T04:07:11.498Z,0
2016-10-29T04:08:13.488Z,0
2016-10-29T04:09:11.934Z,0
2016-10-29T04:10:09.525Z,0
2016-10-29T04:11:09.766Z,0
2016-10-29T04:12:09.452Z,0
2016-10-29T04:13:09.446Z,0
2016-10-29T04:14:09.433Z,0
2016-10-29T04:15:26.659Z,0
2016-10-29T04:16:10.928Z,0
2016-10-29T04:17:11.478Z,0
2016-10-29T04:18:10.556Z,0
2016-10-29T04:19:11.595Z,0
2016-10-29T04:20:09.552Z,0
2016-10-29T04:21:09.356Z,0
2016-10-29T04:22:09.354Z,0
2016-10-29T04:23:09.335Z,0
2016-10-29T04:24:09.325Z,0
2016-10-29T04:25:09.320Z,0
2016-10-29T04:26:09.310Z,0
2016-10-29T04:27:09.300Z,0
2016-10-29T04:28:09.278Z,0
2016-10-29T04:29:09.292Z,0
2016-10-29T04:30:09.266Z,0
2016-10-29T04:31:09.255Z,0
2016-10-29T04:32:09.250Z,0
2016-10-29T04:33:09.238Z,0
2016-10-29T04:34:09.221Z,0
2016-10-29T04:35:09.214Z,0
2016-10-29T04:36:09.202Z,0
2016-10-29T04:37:09.500Z,0
2016-10-29T04:38:09.172Z,0
2016-10-29T04:39:09.163Z,0
2016-10-29T04:40:09.147Z,0
2016-10-29T04:41:09.144Z,0
2016-10-29T04:42:09.183Z,0
2016-10-29T04:43:09.118Z,0
2016-10-29T04:44:09.102Z,0
2016-10-29T04:45:09.087Z,0
2016-10-29T04:46:09.097Z,0
2016-10-29T04:47:09.088Z,0
2016-10-29T04:48:09.362Z,0
2016-10-29T04:49:09.063Z,0
2016-10-29T04:50:09.086Z,0
2016-10-29T04:51:09.029Z,0
2016-10-29T04:52:09.325Z,0
2016-10-29T04:53:09.010Z,0
2016-10-29T04:54:09.004Z,0
2016-10-29T04:55:08.984Z,0
2016-10-29T04:56:09.016Z,0
2016-10-29T04:57:08.968Z,0
2016-10-29T04:58:08.965Z,0
2016-10-29T04:59:08.953Z,0
2016-10-29T05:00:09.189Z,0
2016-10-29T05:01:09.469Z,0
2016-10-29T05:02:10.011Z,0
2016-10-29T05:03:09.181Z,0
2016-10-29T05:04:09.335Z,0
2016-10-29T05:05:09.472Z,0
2016-10-29T05:06:08.860Z,0
2016-10-29T05:07:09.130Z,0
2016-10-29T05:08:08.844Z,0
2016-10-29T05:09:09.988Z,0
2016-10-29T05:10:10.379Z,0
2016-10-29T05:11:24.221Z,0
2016-10-29T05:12:09.105Z,0
2016-10-29T05:13:09.041Z,0
2016-10-29T05:14:09.141Z,0
2016-10-29T05:15:08.767Z,0
2016-10-29T05:16:08.752Z,0
2016-10-29T05:17:08.738Z,0
2016-10-29T05:18:08.730Z,0
2016-10-29T05:19:08.731Z,0
2016-10-29T05:20:08.711Z,0
2016-10-29T05:21:08.704Z,0
2016-10-29T05:22:08.685Z,0
2016-10-29T05:23:08.678Z,0
2016-10-29T05:24:11.711Z,0
2016-10-29T05:25:11.352Z,0
2016-10-29T05:26:12.167Z,0
2016-10-29T05:27:11.566Z,0
2016-10-29T05:28:09.927Z,0
2016-10-29T05:29:08.618Z,0
2016-10-29T05:30:08.603Z,0
2016-10-29T05:31:08.904Z,0
2016-10-29T05:32:08.585Z,0
2016-10-29T05:35:10.266Z,0
2016-10-29T05:36:10.232Z,0
2016-10-29T05:37:09.199Z,0
2016-10-29T05:38:08.515Z,0
2016-10-29T05:39:08.833Z,0
2016-10-29T05:40:08.994Z,0
2016-10-29T05:41:08.602Z,5
2016-10-29T05:42:08.773Z,5
2016-10-29T05:43:08.471Z,5
2016-10-29T05:44:08.464Z,5
2016-10-29T05:45:08.452Z,5
2016-10-29T05:46:08.451Z,5
2016-10-29T05:47:08.407Z,5
2016-10-29T05:48:08.404Z,10
2016-10-29T05:49:08.398Z,10
2016-10-29T05:50:08.392Z,10
2016-10-29T05:51:08.378Z,10
2016-10-29T05:52:08.359Z,10
2016-10-29T05:53:08.355Z,10
2016-10-29T05:54:08.336Z,10
2016-10-29T05:55:08.334Z,10
2016-10-29T05:56:08.372Z,15
2016-10-29T05:57:08.321Z,15
2016-10-29T05:58:08.302Z,15
2016-10-29T05:59:08.295Z,15
2016-10-29T06:00:08.277Z,20
2016-10-29T06:01:08.308Z,20
2016-10-29T06:02:08.259Z,20
2016-10-29T06:03:08.253Z,25
2016-10-29T06:04:08.237Z,25
2016-10-29T06:05:08.276Z,30
2016-10-29T06:06:08.222Z,30
2016-10-29T06:07:08.203Z,35
2016-10-29T06:08:08.195Z,35
2016-10-29T06:09:08.174Z,40
2016-10-29T06:10:08.172Z,40
2016-10-29T06:11:08.160Z,40
2016-10-29T06:12:08.151Z,40
2016-10-29T06:13:08.139Z,45
2016-10-29T06:14:08.136Z,45
2016-10-29T06:15:08.117Z,50
2016-10-29T06:16:08.412Z,50
2016-10-29T06:17:08.093Z,55
2016-10-29T06:19:11.739Z,60
2016-10-29T06:20:08.869Z,60
2016-10-29T06:21:08.570Z,65
2016-10-29T06:22:08.342Z,65
2016-10-29T06:23:08.577Z,65
2016-10-29T06:24:08.473Z,70
2016-10-29T06:25:08.048Z,70
2016-10-29T06:26:07.998Z,70
2016-10-29T06:27:23.684Z,75
2016-10-29T06:28:08.827Z,75
2016-10-29T06:29:08.683Z,80
2016-10-29T06:30:08.060Z,85
2016-10-29T06:31:08.952Z,90
2016-10-29T06:32:08.043Z,90
2016-10-29T06:33:09.034Z,95
2016-10-29T06:34:07.918Z,105
2016-10-29T06:35:07.901Z,105
2016-10-29T06:36:07.903Z,110
2016-10-29T06:37:07.893Z,110
2016-10-29T06:38:07.882Z,115
2016-10-29T06:39:07.874Z,110
2016-10-29T06:40:07.858Z,115
2016-10-29T06:41:07.855Z,115
2016-10-29T06:42:07.836Z,120
2016-10-29T06:43:10.644Z,120
2016-10-29T06:44:10.943Z,120
2016-10-29T06:45:11.348Z,125
2016-10-29T06:46:08.467Z,125
2016-10-29T06:47:07.783Z,135
2016-10-29T06:48:08.570Z,125
2016-10-29T06:49:07.776Z,140
2016-10-29T06:50:07.763Z,155
2016-10-29T06:51:07.751Z,160
2016-10-29T06:52:09.927Z,165
2016-10-29T06:53:10.972Z,170
2016-10-29T06:54:09.825Z,170
2016-10-29T06:55:09.886Z,180
2016-10-29T06:56:09.179Z,165
2016-10-29T06:57:08.535Z,130
2016-10-29T06:58:07.693Z,130
2016-10-29T06:59:07.677Z,105
2016-10-29T07:00:07.675Z,105
2016-10-29T07:01:07.664Z,100
2016-10-29T07:02:07.661Z,100
2016-10-29T07:03:07.657Z,100
2016-10-29T07:04:07.948Z,100
2016-10-29T07:05:07.636Z,105
2016-10-29T07:06:07.618Z,110
2016-10-29T07:07:07.621Z,110
2016-10-29T07:08:07.614Z,125
2016-10-29T07:09:07.624Z,130
2016-10-29T07:10:07.584Z,130
2016-10-29T07:11:07.636Z,130
2016-10-29T07:12:07.574Z,140
2016-10-29T07:13:07.864Z,145
2016-10-29T07:14:07.862Z,150
2016-10-29T07:15:07.584Z,155
2016-10-29T07:16:07.581Z,160
2016-10-29T07:17:07.522Z,160
2016-10-29T07:18:07.531Z,160
2016-10-29T07:19:07.517Z,170
2016-10-29T07:20:07.547Z,165
2016-10-29T07:21:07.808Z,160
2016-10-29T07:22:07.490Z,155
2016-10-29T07:23:07.486Z,155
2016-10-29T07:24:07.774Z,160
2016-10-29T07:25:07.463Z,155
2016-10-29T07:26:07.459Z,160
2016-10-29T07:27:07.448Z,155
2016-10-29T07:28:07.438Z,165
2016-10-29T07:29:07.474Z,170
2016-10-29T07:30:07.426Z,180
2016-10-29T07:31:07.420Z,185
2016-10-29T07:32:07.441Z,185
2016-10-29T07:33:07.414Z,180
2016-10-29T07:34:07.401Z,185
2016-10-29T07:35:07.424Z,185
2016-10-29T07:36:08.386Z,180
2016-10-29T07:37:07.869Z,185
2016-10-29T07:38:22.826Z,180
2016-10-29T07:39:22.520Z,185
2016-10-29T07:41:08.393Z,185
2016-10-29T07:42:07.374Z,185
2016-10-29T07:43:07.342Z,195
2016-10-29T07:44:07.325Z,190
2016-10-29T07:45:07.315Z,185
2016-10-29T07:46:07.815Z,185
2016-10-29T07:47:08.250Z,185
2016-10-29T07:48:07.352Z,185
2016-10-29T07:49:08.389Z,185
2016-10-29T07:50:08.422Z,205
2016-10-29T07:51:07.477Z,205
2016-10-29T07:52:07.820Z,205
2016-10-29T07:53:07.260Z,210
2016-10-29T07:54:07.254Z,220
2016-10-29T07:55:07.244Z,210
2016-10-29T07:56:07.535Z,220
2016-10-29T07:57:07.269Z,205
2016-10-29T07:58:07.223Z,200
2016-10-29T07:59:07.214Z,220
2016-10-29T08:00:07.507Z,220
2016-10-29T08:02:09.580Z,195
2016-10-29T08:03:10.966Z,195
2016-10-29T08:04:08.846Z,210
2016-10-29T08:05:08.795Z,195
2016-10-29T08:06:07.951Z,195
2016-10-29T08:07:07.165Z,200
2016-10-29T08:08:07.154Z,210
2016-10-29T08:09:07.143Z,215
2016-10-29T08:10:09.714Z,220
2016-10-29T08:11:09.774Z,215
2016-10-29T08:12:09.710Z,220
2016-10-29T08:13:08.172Z,225
2016-10-29T08:14:08.646Z,230
2016-10-29T08:15:08.259Z,235
2016-10-29T08:16:07.611Z,235
2016-10-29T08:17:07.100Z,250
2016-10-29T08:18:07.104Z,260
2016-10-29T08:19:07.090Z,260
2016-10-29T08:20:07.077Z,250
2016-10-29T08:21:07.243Z,230
2016-10-29T08:22:07.073Z,230
2016-10-29T08:23:07.064Z,250
2016-10-29T08:24:07.350Z,255
2016-10-29T08:25:07.062Z,245
2016-10-29T08:26:07.044Z,250
2016-10-29T08:27:07.047Z,255
2016-10-29T08:28:07.022Z,250
2016-10-29T08:29:07.028Z,240
2016-10-29T08:30:07.024Z,255
2016-10-29T08:31:07.018Z,275
2016-10-29T08:32:07.040Z,275
2016-10-29T08:33:07.311Z,250
2016-10-29T08:34:07.000Z,250
2016-10-29T08:35:07.038Z,245
2016-10-29T08:36:06.987Z,245
2016-10-29T08:37:06.991Z,265
2016-10-29T08:38:07.001Z,265
2016-10-29T08:39:06.974Z,260
2016-10-29T08:40:06.966Z,260
2016-10-29T08:41:06.987Z,270
2016-10-29T08:42:06.950Z,275
2016-10-29T08:43:06.955Z,275
2016-10-29T08:44:06.938Z,285
2016-10-29T08:45:06.928Z,285
2016-10-29T08:46:06.939Z,290
2016-10-29T08:47:06.925Z,295
2016-10-29T08:48:06.918Z,285
2016-10-29T08:49:06.923Z,280
2016-10-29T08:50:06.946Z,305
2016-10-29T08:51:06.903Z,300
2016-10-29T08:52:06.898Z,275
2016-10-29T08:53:06.896Z,270
2016-10-29T08:54:06.888Z,270
2016-10-29T08:55:07.229Z,270
2016-10-29T08:56:07.125Z,280
2016-10-29T08:58:07.965Z,285
2016-10-29T08:59:07.906Z,280
2016-10-29T09:00:07.628Z,285
2016-10-29T09:01:06.858Z,280
2016-10-29T09:02:06.890Z,285
2016-10-29T09:03:06.839Z,295
2016-10-29T09:04:07.888Z,295
2016-10-29T09:05:07.927Z,300
2016-10-29T09:06:07.671Z,300
2016-10-29T09:07:21.729Z,310
2016-10-29T09:08:08.847Z,315
2016-10-29T09:09:06.853Z,330
2016-10-29T09:10:07.298Z,335
2016-10-29T09:11:06.806Z,345
2016-10-29T09:12:06.800Z,355
2016-10-29T09:13:06.803Z,325
2016-10-29T09:14:06.784Z,315
2016-10-29T09:15:06.782Z,310
2016-10-29T09:16:06.805Z,315
2016-10-29T09:17:06.768Z,320
2016-10-29T09:18:06.773Z,320
2016-10-29T09:19:09.284Z,325
2016-10-29T09:20:08.271Z,335
2016-10-29T09:21:10.558Z,345
2016-10-29T09:22:09.368Z,335
2016-10-29T09:23:07.356Z,330
2016-10-29T09:24:08.008Z,325
2016-10-29T09:25:07.671Z,330
2016-10-29T09:26:06.731Z,330
2016-10-29T09:27:06.718Z,330
2016-10-29T09:28:08.466Z,340
2016-10-29T09:30:09.293Z,330
2016-10-29T09:31:08.879Z,330
2016-10-29T09:32:07.381Z,325
2016-10-29T09:33:08.441Z,320
2016-10-29T09:34:06.695Z,320
2016-10-29T09:35:06.684Z,315
2016-10-29T09:36:06.673Z,305
2016-10-29T09:37:06.680Z,310
2016-10-29T09:38:06.681Z,325
2016-10-29T09:39:06.657Z,340
2016-10-29T09:40:06.667Z,340
2016-10-29T09:41:06.963Z,330
2016-10-29T09:42:06.649Z,335
2016-10-29T09:43:06.652Z,320
2016-10-29T09:44:06.646Z,320
2016-10-29T09:45:06.940Z,300
2016-10-29T09:46:06.640Z,285
2016-10-29T09:47:06.626Z,290
2016-10-29T09:48:06.621Z,305
2016-10-29T09:49:06.656Z,335
2016-10-29T09:50:06.617Z,350
2016-10-29T09:51:06.660Z,335
2016-10-29T09:52:06.905Z,325
2016-10-29T09:53:06.606Z,335
2016-10-29T09:54:06.598Z,330
2016-10-29T09:55:06.634Z,305
2016-10-29T09:56:06.594Z,315
2016-10-29T09:57:06.626Z,320
2016-10-29T09:58:06.585Z,325
2016-10-29T09:59:06.577Z,335
2016-10-29T10:00:06.579Z,345
2016-10-29T10:01:06.597Z,335
2016-10-29T10:02:06.858Z,325
2016-10-29T10:03:06.561Z,305
2016-10-29T10:04:06.559Z,305
2016-10-29T10:05:06.792Z,300
2016-10-29T10:06:06.546Z,300
2016-10-29T10:07:06.534Z,295
2016-10-29T10:08:06.537Z,315
2016-10-29T10:09:06.840Z,345
2016-10-29T10:10:06.522Z,350
2016-10-29T10:11:06.527Z,335
2016-10-29T10:12:06.561Z,330
2016-10-29T10:13:22.328Z,320
2016-10-29T10:14:08.269Z,330
2016-10-29T10:15:06.959Z,345
2016-10-29T10:16:06.563Z,335
2016-10-29T10:17:07.055Z,320
2016-10-29T10:18:06.522Z,335
2016-10-29T10:19:06.490Z,365
2016-10-29T10:20:06.486Z,350
2016-10-29T10:21:06.487Z,350
2016-10-29T10:22:07.773Z,355
2016-10-29T10:23:07.776Z,350
2016-10-29T10:24:07.118Z,345
2016-10-29T10:25:06.903Z,335
2016-10-29T10:26:06.715Z,330
2016-10-29T10:27:06.700Z,345
2016-10-29T10:28:07.009Z,365
2016-10-29T10:29:06.492Z,315
2016-10-29T10:30:06.440Z,295
2016-10-29T10:31:06.445Z,285
2016-10-29T10:32:06.438Z,275
2016-10-29T10:33:06.437Z,275
2016-10-29T10:34:06.427Z,275
2016-10-29T10:35:06.450Z,275
2016-10-29T10:36:06.427Z,280
2016-10-29T10:37:07.455Z,285
2016-10-29T10:38:08.882Z,285
2016-10-29T10:39:10.619Z,290
2016-10-29T10:40:07.236Z,300
2016-10-29T10:41:07.017Z,325
2016-10-29T10:42:07.826Z,335
2016-10-29T10:43:06.397Z,355
2016-10-29T10:44:06.381Z,375
2016-10-29T10:45:06.385Z,340
2016-10-29T10:46:06.376Z,355
2016-10-29T10:48:09.379Z,300
2016-10-29T10:49:09.762Z,295
2016-10-29T10:50:06.838Z,280
2016-10-29T10:51:06.657Z,275
2016-10-29T10:52:07.012Z,275
2016-10-29T10:53:06.351Z,275
2016-10-29T10:54:06.346Z,285
2016-10-29T10:55:06.339Z,270
2016-10-29T10:56:06.333Z,260
2016-10-29T10:57:06.330Z,260
2016-10-29T10:58:06.366Z,260
2016-10-29T10:59:06.338Z,260
2016-10-29T11:00:06.323Z,255
2016-10-29T11:01:06.314Z,245
2016-10-29T11:02:06.311Z,265
2016-10-29T11:03:06.313Z,300
2016-10-29T11:04:06.305Z,325
2016-10-29T11:05:06.606Z,285
2016-10-29T11:06:06.308Z,270
2016-10-29T11:07:06.306Z,260
2016-10-29T11:08:06.277Z,260
2016-10-29T11:09:06.284Z,250
2016-10-29T11:10:06.276Z,285
2016-10-29T11:11:06.287Z,290
2016-10-29T11:12:06.262Z,300
2016-10-29T11:13:06.263Z,285
2016-10-29T11:14:06.256Z,250
2016-10-29T11:15:06.257Z,255
2016-10-29T11:16:06.247Z,310
2016-10-29T11:17:06.288Z,350
2016-10-29T11:18:06.255Z,300
2016-10-29T11:19:06.240Z,235
2016-10-29T11:20:06.227Z,200
2016-10-29T11:21:06.228Z,210
2016-10-29T11:22:06.224Z,235
2016-10-29T11:23:06.533Z,250
2016-10-29T11:24:06.214Z,240
2016-10-29T11:25:06.514Z,215
2016-10-29T11:26:06.251Z,190
2016-10-29T11:27:06.206Z,185
2016-10-29T11:28:06.204Z,190
2016-10-29T11:29:06.201Z,220
2016-10-29T11:30:06.196Z,245
2016-10-29T11:31:07.441Z,235
2016-10-29T11:32:07.533Z,205
2016-10-29T11:33:06.523Z,215
2016-10-29T11:34:07.020Z,220
2016-10-29T11:35:06.223Z,230
2016-10-29T11:36:07.116Z,250
2016-10-29T11:37:06.153Z,250
2016-10-29T11:38:06.151Z,230
2016-10-29T11:39:06.186Z,190
2016-10-29T11:40:06.495Z,205
2016-10-29T11:41:07.674Z,225
2016-10-29T11:42:06.587Z,210
2016-10-29T11:43:06.835Z,255
2016-10-29T11:44:06.325Z,265
2016-10-29T11:45:06.126Z,275
2016-10-29T11:46:06.280Z,275
2016-10-29T11:47:06.727Z,270
2016-10-29T11:48:06.107Z,270
2016-10-29T11:49:06.100Z,270
2016-10-29T11:50:06.111Z,280
2016-10-29T11:51:06.087Z,295
2016-10-29T11:52:06.450Z,290
2016-10-29T11:53:06.084Z,260
2016-10-29T11:54:06.088Z,215
2016-10-29T11:55:06.073Z,200
2016-10-29T11:56:09.161Z,185
2016-10-29T11:57:10.211Z,170
2016-10-29T11:58:07.766Z,180
2016-10-29T11:59:08.437Z,210
2016-10-29T12:00:07.938Z,250
2016-10-29T12:01:06.640Z,255
2016-10-29T12:02:06.059Z,250
2016-10-29T12:03:06.041Z,240
2016-10-29T12:04:06.034Z,235
2016-10-29T12:06:08.590Z,260
2016-10-29T12:07:09.974Z,270
2016-10-29T12:08:07.975Z,260
2016-10-29T12:09:07.965Z,185
2016-10-29T12:10:07.109Z,135
2016-10-29T12:11:06.302Z,130
2016-10-29T12:12:06.006Z,130
2016-10-29T12:13:05.993Z,130
2016-10-29T12:14:05.983Z,140
2016-10-29T12:15:05.987Z,145
2016-10-29T12:16:05.973Z,130
2016-10-29T12:17:05.973Z,165
2016-10-29T12:18:06.276Z,195
2016-10-29T12:19:06.714Z,205
2016-10-29T12:20:05.961Z,190
2016-10-29T12:21:05.960Z,175
2016-10-29T12:22:05.956Z,160
2016-10-29T12:23:05.945Z,205
2016-10-29T12:24:05.948Z,245
2016-10-29T12:25:05.941Z,240
2016-10-29T12:26:05.928Z,255
2016-10-29T12:27:05.930Z,260
2016-10-29T12:28:06.235Z,260
2016-10-29T12:29:05.914Z,260
2016-10-29T12:30:06.216Z,240
2016-10-29T12:31:05.939Z,245
2016-10-29T12:32:05.910Z,230
2016-10-29T12:33:05.907Z,200
2016-10-29T12:34:05.887Z,190
2016-10-29T12:35:05.885Z,185
2016-10-29T12:36:05.882Z,200
2016-10-29T12:37:05.872Z,215
2016-10-29T12:38:05.876Z,225
2016-10-29T12:39:05.867Z,250
2016-10-29T12:40:05.870Z,265
2016-10-29T12:41:05.849Z,275
2016-10-29T12:42:05.861Z,295
2016-10-29T12:43:05.846Z,295
2016-10-29T12:44:05.881Z,290
2016-10-29T12:45:05.830Z,280
2016-10-29T12:46:05.867Z,255
2016-10-29T12:47:05.829Z,230
2016-10-29T12:48:05.818Z,205
2016-10-29T12:49:05.822Z,160
2016-10-29T12:50:07.361Z,145
2016-10-29T12:51:20.972Z,170
2016-10-29T12:53:06.099Z,165
2016-10-29T12:54:05.839Z,165
2016-10-29T12:55:05.789Z,140
2016-10-29T12:56:06.094Z,125
2016-10-29T12:57:05.778Z,130
2016-10-29T12:58:05.765Z,160
2016-10-29T12:59:21.041Z,160
2016-10-29T13:00:05.918Z,155
2016-10-29T13:01:35.827Z,145
2016-10-29T13:02:06.915Z,150
2016-10-29T13:03:20.819Z,150
2016-10-29T13:04:06.093Z,155
2016-10-29T13:05:05.739Z,170
2016-10-29T13:06:05.812Z,165
2016-10-29T13:07:05.728Z,140
2016-10-29T13:08:05.726Z,125
2016-10-29T13:09:05.717Z,115
2016-10-29T13:10:06.013Z,135
2016-10-29T13:11:05.702Z,140
2016-10-29T13:12:05.703Z,135
2016-10-29T13:13:05.991Z,125
2016-10-29T13:14:07.387Z,125
2016-10-29T13:16:08.024Z,105
2016-10-29T13:17:06.666Z,100
2016-10-29T13:18:07.197Z,85
2016-10-29T13:19:07.279Z,90
2016-10-29T13:20:06.491Z,100
2016-10-29T13:21:05.656Z,135
2016-10-29T13:22:05.765Z,180
2016-10-29T13:23:07.931Z,195
2016-10-29T13:25:07.200Z,195
2016-10-29T13:26:06.219Z,195
2016-10-29T13:27:07.232Z,195
2016-10-29T13:28:05.627Z,195
2016-10-29T13:29:05.617Z,180
2016-10-29T13:30:05.616Z,175
2016-10-29T13:31:05.598Z,190
2016-10-29T13:32:05.591Z,190
2016-10-29T13:33:05.593Z,180
2016-10-29T13:34:05.592Z,180
2016-10-29T13:35:05.584Z,180
2016-10-29T13:36:05.576Z,175
2016-10-29T13:37:05.563Z,160
2016-10-29T13:38:05.575Z,145
2016-10-29T13:39:05.566Z,135
2016-10-29T13:40:05.550Z,130
2016-10-29T13:41:05.552Z,135
2016-10-29T13:42:05.545Z,135
2016-10-29T13:43:05.842Z,140
2016-10-29T13:44:05.522Z,150
2016-10-29T13:45:05.538Z,155
2016-10-29T13:46:05.532Z,150
2016-10-29T13:47:05.832Z,140
2016-10-29T13:48:05.531Z,135
2016-10-29T13:49:05.510Z,140
2016-10-29T13:50:05.805Z,150
2016-10-29T13:51:05.793Z,145
2016-10-29T13:52:05.493Z,145
2016-10-29T13:53:05.494Z,145
2016-10-29T13:54:05.526Z,155
2016-10-29T13:55:05.473Z,150
2016-10-29T13:56:05.500Z,150
2016-10-29T13:57:05.463Z,165
2016-10-29T13:58:05.454Z,165
2016-10-29T13:59:05.450Z,160
2016-10-29T14:00:05.448Z,160
2016-10-29T14:01:05.446Z,160
2016-10-29T14:02:05.742Z,165
2016-10-29T14:03:05.440Z,155
2016-10-29T14:04:05.726Z,150
2016-10-29T14:05:05.413Z,145
2016-10-29T14:06:05.417Z,140
2016-10-29T14:07:05.413Z,140
2016-10-29T14:08:05.959Z,145
2016-10-29T14:09:05.647Z,150
2016-10-29T14:10:06.444Z,150
2016-10-29T14:11:06.384Z,150
2016-10-29T14:12:20.609Z,145
2016-10-29T14:13:05.413Z,145
2016-10-29T14:14:05.374Z,140
2016-10-29T14:15:05.361Z,140
2016-10-29T14:16:05.525Z,140
2016-10-29T14:17:07.220Z,130
2016-10-29T14:19:21.750Z,110
2016-10-29T14:20:06.587Z,110
2016-10-29T14:21:06.033Z,100
2016-10-29T14:22:05.924Z,105
2016-10-29T14:23:05.819Z,105
2016-10-29T14:24:05.316Z,95
2016-10-29T14:25:05.308Z,100
2016-10-29T14:26:05.294Z,95
2016-10-29T14:27:05.597Z,95
2016-10-29T14:28:05.288Z,100
2016-10-29T14:29:05.287Z,95
2016-10-29T14:30:05.271Z,95